Port Angeles, WA

2:47 PM PDT on October 21, 2014 (GMT -0700)
Foothills | Change Station
CLOSE
Current Station
Personal Weather Station
Location: Old Mill & Simmons Port Angeles, WA
Elevation: 955 ft
Nearby Weather Stations
Active Advisory: Areal Flood Watch

Elev 955 ft 48.08 °N, 123.45 °W | Updated 2 seconds ago

Overcast
Overcast
57.0 °F
Feels Like 57.0 °F
N
1.0
Wind Variable Wind from WNW
Gusts 4.0 mph

Today
High -- | Low -- °F
--% Chance of Precip.
Yesterday
High -- | Low -- °F
Precip. -- in
7:42 AM 6:13 PM
Waning Crescent, 4% visible
Pressure 29.82 in
Visibility 10.0 miles
Clouds Few 4400 ft
Scattered Clouds 7000 ft
Dew Point 49 °F
Humidity 74%
Rainfall 0.02 in
Snow Depth Not available.
UV 2 out of 12
Pollen .40 out of 12
PM2.5 Good
Flu Activity Sporadic
METAR KCLM 212053Z AUTO 03005KT 10SM FEW044 SCT070 15/11 A2982 RMK AO2 SLP097 T01500106 58008 TSNO $

More Conditions Fewer Conditions

Pressure 29.82 in
Visibility 10.0 miles
Clouds Few 4400 ft
Scattered Clouds 7000 ft
Dew Point 49 °F
Humidity 74%
Rainfall 0.02 in
Snow Depth Not available.
UV 2 out of 12
Pollen .40 out of 12
PM2.5 Good
Flu Activity Sporadic
METAR KCLM 212053Z AUTO 03005KT 10SM FEW044 SCT070 15/11 A2982 RMK AO2 SLP097 T01500106 58008 TSNO $

More Conditions Fewer Conditions

10-Day Weather Forecast

Almanac

Astronomy

Oct. 21, 2014 Rise Set
Actual Time 7:42 AM PDT 6:13 PM PDT
Civil Twilight 7:10 AM PDT 6:45 PM PDT
Nautical Twilight 6:34 AM PDT 7:21 PM PDT
Astronomical Twilight 5:58 AM PDT 7:57 PM PDT
Moon 5:22 AM PDT 5:18 PM PDT
Length of Visible Light 11h 34m
Length of Day
10h 31m
Tomorrow will be 3m 18s shorter.
Waning Crescent, 4% of the Moon is Illuminated
Today
Waning Crescent
Oct 23
New
Oct 30
First Quarter
Nov 6
Full
Nov 14
Last Quarter

Today's Extremes

State Highs State Lows

Community

WunderPhotos

Upload Photos

1,763,785 photos uploaded!

Nearby

Air Quality

  Air Quality AQ Index Pollutant
Yesterday Good
PM2.5
Current Good
PM2.5

Snow Depth

Station Depth Elevation
Dungeness 0 in 4100 ft
Mount Crag 0 in 4050 ft
Alpine Meadows 0 in 3500 ft
Elbow Lake 0 in 3200 ft
Mf Nooksack 1 in 4980 ft

Earthquake Activity

City Distance Mag. Time & Date
No recent earthquake activity has been reported nearby.
Minimum magnitude displayed is 2.5.

Coastal Water Temperatures

Place Temperature
Port Angeles, WA 57.0 °F
Friday Harbor, WA 51.1 °F
Port Townsend, WA 53.1 °F
La Push, WA 54.0 °F

Nearby Weather Stations